Time;durP1;ratioP1;P1;durP2;ratioP2;P2;SDS_P1;SDS_P2;PMS_P1;PMS_P2;Temp;Humidity;BMP_temperature;BMP_pressure;BME280_temperature;BME280_humidity;BME280_pressure;Samples;Min_cycle;Max_cycle;Signal;HPM_P1;HPM_P2
2021/10/06 00:00:20;;;;;;;10.25;1.73;;;;;;;;;;5037353;28;20131;-75
2021/10/06 00:02:47;;;;;;;6.07;1.40;;;;;;;;;;5035757;28;20033;-74
2021/10/06 00:05:15;;;;;;;9.65;1.40;;;;;;;;;;5037784;28;20110;-74
2021/10/06 00:07:42;;;;;;;5.97;2.03;;;;;;;;;;5037994;28;20032;-74
2021/10/06 00:10:09;;;;;;;9.88;1.90;;;;;;;;;;5037930;28;20053;-74
2021/10/06 00:12:36;;;;;;;7.28;1.88;;;;;;;;;;5037125;28;20033;-74
2021/10/06 00:15:05;;;;;;;9.57;1.48;;;;;;;;;;5040073;28;20025;-74
2021/10/06 00:17:32;;;;;;;6.32;1.50;;;;;;;;;;5039368;28;20018;-72
2021/10/06 00:19:59;;;;;;;9.10;2.00;;;;;;;;;;5041020;28;20534;-73
2021/10/06 00:22:27;;;;;;;7.10;1.30;;;;;;;;;;5041580;28;20045;-72
2021/10/06 00:24:54;;;;;;;7.82;1.40;;;;;;;;;;5040122;28;20551;-72
2021/10/06 00:27:21;;;;;;;9.25;1.83;;;;;;;;;;5041745;28;20029;-69
2021/10/06 00:29:48;;;;;;;9.80;1.80;;;;;;;;;;5041512;28;20059;-74
2021/10/06 00:32:15;;;;;;;5.65;1.85;;;;;;;;;;5041164;28;20074;-71
2021/10/06 00:34:42;;;;;;;6.63;1.60;;;;;;;;;;5041267;28;20032;-75
2021/10/06 00:37:09;;;;;;;6.40;1.63;;;;;;;;;;5043053;28;20021;-74
2021/10/06 00:39:37;;;;;;;6.95;1.55;;;;;;;;;;5041685;28;20045;-71
2021/10/06 00:42:04;;;;;;;7.80;1.20;;;;;;;;;;5040150;28;20492;-73
2021/10/06 00:44:35;;;;;;;11.07;1.75;;;;;;;;;;5048955;28;20026;-71
2021/10/06 00:47:02;;;;;;;10.48;1.77;;;;;;;;;;5044884;28;20393;-72
2021/10/06 00:49:30;;;;;;;9.55;2.42;;;;;;;;;;5040635;28;20040;-72
2021/10/06 00:51:57;;;;;;;10.32;1.65;;;;;;;;;;5042764;28;20516;-71
2021/10/06 00:54:24;;;;;;;9.30;2.25;;;;;;;;;;5044539;28;20033;-66
2021/10/06 00:56:51;;;;;;;7.40;2.08;;;;;;;;;;5044792;28;20017;-73
2021/10/06 00:59:18;;;;;;;8.95;1.63;;;;;;;;;;5042380;28;20051;-74
2021/10/06 01:01:45;;;;;;;8.73;2.10;;;;;;;;;;5038148;28;20502;-75
2021/10/06 01:04:12;;;;;;;9.48;2.25;;;;;;;;;;5040927;28;20033;-74
2021/10/06 01:06:40;;;;;;;7.43;1.20;;;;;;;;;;5041654;28;20565;-73
2021/10/06 01:09:07;;;;;;;6.90;1.20;;;;;;;;;;5039083;28;20064;-73
2021/10/06 01:11:34;;;;;;;7.10;1.50;;;;;;;;;;5040004;28;20196;-74
2021/10/06 01:14:02;;;;;;;5.63;1.33;;;;;;;;;;5039020;28;20120;-72
2021/10/06 01:16:29;;;;;;;6.40;1.90;;;;;;;;;;5038453;28;20029;-74
2021/10/06 01:18:56;;;;;;;10.25;2.28;;;;;;;;;;5041412;28;20025;-73
2021/10/06 01:21:23;;;;;;;9.85;2.17;;;;;;;;;;5040223;28;20120;-73
2021/10/06 01:23:52;;;;;;;12.05;2.03;;;;;;;;;;5042314;28;20083;-73
2021/10/06 01:26:19;;;;;;;10.32;1.85;;;;;;;;;;5040919;28;20017;-73
2021/10/06 01:28:50;;;;;;;8.77;1.58;;;;;;;;;;5040899;28;20025;-74
2021/10/06 01:31:17;;;;;;;9.55;2.72;;;;;;;;;;5038725;28;20025;-74
2021/10/06 01:33:45;;;;;;;15.00;2.85;;;;;;;;;;5040449;28;20225;-74
2021/10/06 01:36:13;;;;;;;9.70;2.30;;;;;;;;;;5039919;28;20742;-75
2021/10/06 01:38:40;;;;;;;10.00;2.05;;;;;;;;;;5039134;28;20596;-74
2021/10/06 01:41:07;;;;;;;5.15;1.20;;;;;;;;;;5038620;28;20028;-73
2021/10/06 01:43:34;;;;;;;11.57;1.95;;;;;;;;;;5041562;28;20021;-72
2021/10/06 01:46:01;;;;;;;7.13;1.90;;;;;;;;;;5040728;28;20094;-73
2021/10/06 01:48:28;;;;;;;7.93;1.63;;;;;;;;;;5041009;28;20028;-73
2021/10/06 01:50:56;;;;;;;7.78;2.20;;;;;;;;;;5040858;28;20029;-71
2021/10/06 01:53:23;;;;;;;7.63;1.70;;;;;;;;;;5039674;28;20041;-72
2021/10/06 01:55:50;;;;;;;8.68;2.20;;;;;;;;;;5038558;28;20104;-73
2021/10/06 01:58:20;;;;;;;9.75;2.13;;;;;;;;;;5039214;28;20516;-73
2021/10/06 02:00:49;;;;;;;14.70;1.58;;;;;;;;;;5038524;28;20037;-72
2021/10/06 02:03:16;;;;;;;5.47;1.02;;;;;;;;;;5037913;28;20083;-73
2021/10/06 02:05:43;;;;;;;13.68;1.42;;;;;;;;;;5038477;28;20029;-73
2021/10/06 02:08:14;;;;;;;9.70;2.15;;;;;;;;;;5038475;28;20028;-70
2021/10/06 02:10:42;;;;;;;6.60;1.20;;;;;;;;;;5040155;28;20033;-71
2021/10/06 02:13:09;;;;;;;8.73;2.08;;;;;;;;;;5040931;28;20020;-74
2021/10/06 02:15:36;;;;;;;14.55;3.45;;;;;;;;;;5037895;28;20497;-72
2021/10/06 02:18:03;;;;;;;9.90;1.67;;;;;;;;;;5040867;28;20021;-73
2021/10/06 02:20:31;;;;;;;9.80;2.35;;;;;;;;;;5038885;28;20036;-74
2021/10/06 02:22:58;;;;;;;4.25;1.30;;;;;;;;;;5039142;28;20477;-75
2021/10/06 02:25:25;;;;;;;6.80;1.40;;;;;;;;;;5038279;28;20035;-74
2021/10/06 02:27:52;;;;;;;6.05;1.30;;;;;;;;;;5040086;28;20028;-75
2021/10/06 02:30:19;;;;;;;5.50;1.70;;;;;;;;;;5040028;28;20737;-74
2021/10/06 02:32:46;;;;;;;7.90;1.20;;;;;;;;;;5037630;28;20021;-75
2021/10/06 02:35:14;;;;;;;13.93;2.90;;;;;;;;;;5041306;28;20021;-75
2021/10/06 02:37:41;;;;;;;11.63;2.13;;;;;;;;;;5037048;28;20469;-74
2021/10/06 02:40:10;;;;;;;7.80;1.92;;;;;;;;;;5038692;28;20084;-75
2021/10/06 02:42:38;;;;;;;4.50;1.05;;;;;;;;;;5038628;28;20044;-75
2021/10/06 02:45:06;;;;;;;6.00;0.90;;;;;;;;;;5040296;28;20025;-75
2021/10/06 02:47:33;;;;;;;7.22;1.00;;;;;;;;;;5038695;28;20079;-72
2021/10/06 02:50:01;;;;;;;6.72;1.05;;;;;;;;;;5039323;28;20032;-70
2021/10/06 02:52:28;;;;;;;5.25;1.00;;;;;;;;;;5038978;28;20117;-74
2021/10/06 02:54:55;;;;;;;7.13;1.20;;;;;;;;;;5039033;28;20060;-72
2021/10/06 02:57:22;;;;;;;4.18;0.98;;;;;;;;;;5046741;28;20710;-74
2021/10/06 02:59:49;;;;;;;3.92;0.80;;;;;;;;;;5040114;28;20108;-75
2021/10/06 03:02:16;;;;;;;9.43;2.22;;;;;;;;;;5040185;28;20032;-77
2021/10/06 03:04:44;;;;;;;8.75;2.00;;;;;;;;;;5041096;28;20028;-76
2021/10/06 03:07:11;;;;;;;9.85;2.15;;;;;;;;;;5039851;28;20030;-76
2021/10/06 03:09:38;;;;;;;7.15;2.22;;;;;;;;;;5039648;28;20371;-76
2021/10/06 03:12:05;;;;;;;11.90;2.03;;;;;;;;;;5041027;28;20013;-75
2021/10/06 03:14:32;;;;;;;11.30;2.20;;;;;;;;;;5043052;28;20029;-75
2021/10/06 03:16:59;;;;;;;14.82;2.85;;;;;;;;;;5042915;28;20486;-75
2021/10/06 03:19:26;;;;;;;10.40;2.17;;;;;;;;;;5040327;28;20039;-75
2021/10/06 03:21:53;;;;;;;7.50;1.83;;;;;;;;;;5039782;28;20747;-76
2021/10/06 03:24:21;;;;;;;7.90;1.88;;;;;;;;;;5041737;28;20116;-75
2021/10/06 03:26:48;;;;;;;10.15;2.15;;;;;;;;;;5038365;28;20041;-78
2021/10/06 03:29:15;;;;;;;13.52;2.50;;;;;;;;;;5040848;28;20473;-76
2021/10/06 03:31:42;;;;;;;7.43;1.90;;;;;;;;;;5038591;28;20022;-75
2021/10/06 03:34:09;;;;;;;8.13;2.10;;;;;;;;;;5041797;28;20490;-77
2021/10/06 03:36:36;;;;;;;10.70;2.45;;;;;;;;;;5040212;28;20033;-75
2021/10/06 03:39:04;;;;;;;10.88;2.20;;;;;;;;;;5044754;28;20512;-76
2021/10/06 03:41:31;;;;;;;9.63;2.13;;;;;;;;;;5042954;28;20036;-76
2021/10/06 03:43:58;;;;;;;12.40;2.88;;;;;;;;;;5041326;28;20044;-74
2021/10/06 03:46:25;;;;;;;8.23;1.73;;;;;;;;;;5038501;28;20409;-75
2021/10/06 03:48:52;;;;;;;14.60;1.92;;;;;;;;;;5036494;28;20033;-72
2021/10/06 03:51:19;;;;;;;10.90;2.28;;;;;;;;;;5036281;28;20033;-74
2021/10/06 03:53:46;;;;;;;8.32;1.60;;;;;;;;;;5039375;28;20021;-72
2021/10/06 03:56:14;;;;;;;10.82;1.67;;;;;;;;;;5043692;28;20028;-68
2021/10/06 03:58:41;;;;;;;9.77;2.60;;;;;;;;;;5043990;28;20397;-74
2021/10/06 04:01:08;;;;;;;8.35;1.92;;;;;;;;;;5041370;28;20025;-71
2021/10/06 04:03:35;;;;;;;9.93;2.00;;;;;;;;;;5040816;28;20401;-72
2021/10/06 04:06:02;;;;;;;13.02;2.38;;;;;;;;;;5045495;28;20035;-77
2021/10/06 04:08:29;;;;;;;12.52;2.28;;;;;;;;;;5044633;28;20064;-70
2021/10/06 04:10:56;;;;;;;11.57;1.92;;;;;;;;;;5042808;28;20029;-66
2021/10/06 04:13:23;;;;;;;9.18;1.85;;;;;;;;;;5044115;28;20029;-70
2021/10/06 04:15:51;;;;;;;15.13;3.28;;;;;;;;;;5044109;28;20513;-74
2021/10/06 04:18:18;;;;;;;34.53;3.80;;;;;;;;;;5042478;28;20048;-75
2021/10/06 04:20:48;;;;;;;11.23;1.77;;;;;;;;;;5042276;28;20374;-74
2021/10/06 04:23:15;;;;;;;8.43;1.48;;;;;;;;;;5041908;28;20381;-70
2021/10/06 04:25:43;;;;;;;10.93;1.92;;;;;;;;;;5039639;28;20034;-72
2021/10/06 04:28:10;;;;;;;8.80;1.38;;;;;;;;;;5043733;28;20017;-73
2021/10/06 04:30:37;;;;;;;6.30;1.50;;;;;;;;;;5040835;28;20056;-74
2021/10/06 04:33:08;;;;;;;6.35;1.83;;;;;;;;;;5042509;28;20041;-67
2021/10/06 04:35:35;;;;;;;18.27;2.05;;;;;;;;;;5040922;28;20025;-76
2021/10/06 04:38:02;;;;;;;8.23;1.60;;;;;;;;;;5040847;28;20051;-76
2021/10/06 04:40:29;;;;;;;6.32;1.02;;;;;;;;;;5040201;28;20040;-78
2021/10/06 04:42:56;;;;;;;8.35;1.70;;;;;;;;;;5042106;28;20036;-76
2021/10/06 04:45:23;;;;;;;6.43;1.17;;;;;;;;;;5039525;28;20107;-74
2021/10/06 04:47:51;;;;;;;8.20;1.60;;;;;;;;;;5041461;28;20036;-75
2021/10/06 04:50:18;;;;;;;5.35;1.30;;;;;;;;;;5041706;28;20025;-77
2021/10/06 04:52:46;;;;;;;8.15;1.55;;;;;;;;;;5040193;28;20037;-72
2021/10/06 04:55:13;;;;;;;8.27;1.98;;;;;;;;;;5044723;28;20057;-74
2021/10/06 04:57:40;;;;;;;5.70;1.35;;;;;;;;;;5039166;28;20052;-73
2021/10/06 05:00:07;;;;;;;12.13;1.75;;;;;;;;;;5039921;28;20725;-74
2021/10/06 05:02:34;;;;;;;12.25;2.03;;;;;;;;;;5045357;28;20112;-73
2021/10/06 05:05:01;;;;;;;7.80;1.50;;;;;;;;;;5041534;28;20359;-73
2021/10/06 05:07:29;;;;;;;13.93;1.40;;;;;;;;;;5038869;28;20029;-72
2021/10/06 05:09:56;;;;;;;18.25;1.80;;;;;;;;;;5040520;28;20033;-64
2021/10/06 05:12:23;;;;;;;11.38;1.85;;;;;;;;;;5043522;28;20025;-66
2021/10/06 05:14:51;;;;;;;12.73;2.17;;;;;;;;;;5043185;28;20022;-64
2021/10/06 05:17:18;;;;;;;11.02;1.95;;;;;;;;;;5041204;28;20489;-64
2021/10/06 05:19:45;;;;;;;11.60;1.55;;;;;;;;;;5040541;28;20416;-64
2021/10/06 05:22:12;;;;;;;11.98;1.90;;;;;;;;;;5040266;28;20113;-65
2021/10/06 05:24:39;;;;;;;12.18;3.17;;;;;;;;;;5038470;28;20026;-65
2021/10/06 05:27:06;;;;;;;15.68;2.03;;;;;;;;;;5039670;28;20414;-63
2021/10/06 05:29:36;;;;;;;17.40;2.33;;;;;;;;;;5033401;28;20060;-63
2021/10/06 05:32:04;;;;;;;8.98;1.77;;;;;;;;;;5038530;28;20021;-64
2021/10/06 05:34:32;;;;;;;9.43;2.03;;;;;;;;;;5040733;28;20398;-63
2021/10/06 05:36:59;;;;;;;10.40;2.00;;;;;;;;;;5038110;28;20108;-64
2021/10/06 05:39:26;;;;;;;7.28;1.55;;;;;;;;;;5041892;28;20056;-64
2021/10/06 05:41:54;;;;;;;6.68;1.55;;;;;;;;;;5043247;28;20029;-64
2021/10/06 05:44:21;;;;;;;5.88;1.00;;;;;;;;;;5040068;28;20044;-64
2021/10/06 05:46:48;;;;;;;7.22;1.75;;;;;;;;;;5042121;28;20120;-66
2021/10/06 05:49:15;;;;;;;10.35;1.63;;;;;;;;;;5041075;28;20389;-66
2021/10/06 05:51:42;;;;;;;3.85;0.95;;;;;;;;;;5038998;28;20044;-65
2021/10/06 05:54:09;;;;;;;7.90;1.40;;;;;;;;;;5038153;28;20033;-66
2021/10/06 05:56:36;;;;;;;6.20;1.13;;;;;;;;;;5038372;28;20382;-66
2021/10/06 05:59:04;;;;;;;10.35;1.52;;;;;;;;;;5039884;28;20025;-65
2021/10/06 06:01:31;;;;;;;8.05;1.27;;;;;;;;;;5038722;28;20348;-64
2021/10/06 06:03:58;;;;;;;5.50;0.90;;;;;;;;;;5040692;28;20036;-66
2021/10/06 06:06:25;;;;;;;11.68;1.20;;;;;;;;;;5040769;28;20113;-67
2021/10/06 06:08:52;;;;;;;8.57;1.30;;;;;;;;;;5033362;28;20065;-66
2021/10/06 06:11:21;;;;;;;5.40;1.50;;;;;;;;;;5038048;28;20045;-65
2021/10/06 06:13:48;;;;;;;7.43;1.48;;;;;;;;;;5039993;28;20033;-66
2021/10/06 06:16:15;;;;;;;5.63;1.15;;;;;;;;;;5042354;28;20024;-66
2021/10/06 06:18:43;;;;;;;9.15;1.10;;;;;;;;;;5037210;28;20029;-66
2021/10/06 06:21:10;;;;;;;7.97;1.40;;;;;;;;;;5037799;28;20037;-67
2021/10/06 06:23:37;;;;;;;5.18;0.88;;;;;;;;;;5038391;28;20033;-67
2021/10/06 06:26:05;;;;;;;5.03;1.20;;;;;;;;;;5039447;28;20116;-66
2021/10/06 06:28:32;;;;;;;6.68;1.00;;;;;;;;;;5041246;28;20053;-67
2021/10/06 06:30:59;;;;;;;3.90;0.77;;;;;;;;;;5038464;28;20037;-66
2021/10/06 06:33:26;;;;;;;6.82;1.13;;;;;;;;;;5040449;28;20021;-67
2021/10/06 06:35:53;;;;;;;6.88;1.40;;;;;;;;;;5038451;28;20163;-67
2021/10/06 06:38:20;;;;;;;4.53;0.93;;;;;;;;;;5037451;28;20560;-66
2021/10/06 06:40:47;;;;;;;5.88;1.58;;;;;;;;;;5039025;28;20036;-67
2021/10/06 06:43:15;;;;;;;4.82;1.00;;;;;;;;;;5039356;28;20059;-67
2021/10/06 06:45:42;;;;;;;5.53;1.02;;;;;;;;;;5038434;28;20017;-66
2021/10/06 06:48:09;;;;;;;5.32;1.20;;;;;;;;;;5039951;28;20017;-66
2021/10/06 06:50:36;;;;;;;11.45;1.45;;;;;;;;;;5038679;28;20085;-65
2021/10/06 06:53:04;;;;;;;4.75;0.80;;;;;;;;;;5040173;28;20591;-65
2021/10/06 06:55:31;;;;;;;7.40;1.45;;;;;;;;;;5037166;28;20036;-65
2021/10/06 06:57:58;;;;;;;5.43;0.75;;;;;;;;;;5038568;28;20082;-65
2021/10/06 07:00:25;;;;;;;4.68;1.17;;;;;;;;;;5037372;28;20040;-65
2021/10/06 07:02:53;;;;;;;5.88;0.90;;;;;;;;;;5036182;28;20021;-64
2021/10/06 07:05:20;;;;;;;9.35;1.27;;;;;;;;;;5038783;28;20033;-66
2021/10/06 07:07:48;;;;;;;5.55;1.10;;;;;;;;;;5039873;28;20029;-66
2021/10/06 07:10:16;;;;;;;6.97;1.25;;;;;;;;;;5038078;28;20143;-66
2021/10/06 07:12:43;;;;;;;8.77;2.00;;;;;;;;;;5037217;28;20029;-66
2021/10/06 07:15:10;;;;;;;7.55;1.10;;;;;;;;;;5041436;28;20037;-66
2021/10/06 07:17:37;;;;;;;5.82;1.63;;;;;;;;;;5033367;28;20433;-66
2021/10/06 07:20:04;;;;;;;7.03;1.23;;;;;;;;;;5040202;28;20099;-66
2021/10/06 07:22:33;;;;;;;5.65;1.00;;;;;;;;;;5036926;28;20052;-66
2021/10/06 07:25:00;;;;;;;11.75;1.45;;;;;;;;;;5035130;28;20431;-66
2021/10/06 07:27:28;;;;;;;6.63;1.00;;;;;;;;;;5052045;28;21114;-65
2021/10/06 07:29:55;;;;;;;6.68;1.35;;;;;;;;;;5047002;28;20024;-65
2021/10/06 07:32:22;;;;;;;5.80;1.00;;;;;;;;;;5046474;28;20381;-66
2021/10/06 07:34:49;;;;;;;7.15;1.50;;;;;;;;;;5036754;28;20493;-65
2021/10/06 07:37:16;;;;;;;8.35;1.27;;;;;;;;;;5036550;28;20482;-66
2021/10/06 07:39:43;;;;;;;7.05;1.58;;;;;;;;;;5035970;28;20059;-65
2021/10/06 07:42:10;;;;;;;7.05;1.63;;;;;;;;;;5036735;28;20034;-65
2021/10/06 07:44:38;;;;;;;6.78;1.10;;;;;;;;;;5055158;28;20052;-66
2021/10/06 07:47:05;;;;;;;6.20;1.23;;;;;;;;;;5058917;28;20022;-66
2021/10/06 07:49:32;;;;;;;7.95;1.40;;;;;;;;;;5044749;28;20449;-65
2021/10/06 07:51:59;;;;;;;7.93;1.38;;;;;;;;;;5049032;28;20025;-66
2021/10/06 07:54:26;;;;;;;10.55;1.45;;;;;;;;;;5049758;28;20028;-65
2021/10/06 07:56:53;;;;;;;9.25;1.38;;;;;;;;;;5042548;28;20025;-65
2021/10/06 07:59:21;;;;;;;10.13;1.90;;;;;;;;;;5038776;28;20025;-65
2021/10/06 08:01:48;;;;;;;7.55;1.63;;;;;;;;;;5036769;28;20429;-66
2021/10/06 08:04:15;;;;;;;7.32;0.95;;;;;;;;;;5039678;28;20053;-66
2021/10/06 08:06:42;;;;;;;8.15;1.83;;;;;;;;;;5052614;28;20095;-65
2021/10/06 08:09:09;;;;;;;6.55;1.33;;;;;;;;;;5045851;28;20375;-65
2021/10/06 08:11:36;;;;;;;6.13;1.30;;;;;;;;;;5034637;28;20033;-65
2021/10/06 08:14:04;;;;;;;7.80;2.17;;;;;;;;;;5037716;28;20033;-65
2021/10/06 08:16:31;;;;;;;7.88;1.85;;;;;;;;;;5050658;28;20025;-66
2021/10/06 08:18:58;;;;;;;13.32;1.90;;;;;;;;;;5055067;28;20434;-65
2021/10/06 08:21:26;;;;;;;5.63;1.52;;;;;;;;;;5052594;28;20053;-65
2021/10/06 08:23:53;;;;;;;5.63;1.10;;;;;;;;;;5052363;28;20486;-66
2021/10/06 08:26:20;;;;;;;5.78;1.40;;;;;;;;;;5036946;28;20057;-66
2021/10/06 08:28:47;;;;;;;9.45;1.95;;;;;;;;;;5050861;28;20021;-64
2021/10/06 08:31:15;;;;;;;10.55;2.20;;;;;;;;;;5036583;28;20033;-65
2021/10/06 08:33:42;;;;;;;8.20;2.40;;;;;;;;;;5052938;28;20021;-65
2021/10/06 08:36:09;;;;;;;4.88;1.38;;;;;;;;;;5052479;28;20025;-66
2021/10/06 08:38:37;;;;;;;9.18;2.20;;;;;;;;;;5045055;28;20041;-65
2021/10/06 08:41:04;;;;;;;10.60;2.58;;;;;;;;;;5046720;28;20923;-65
2021/10/06 08:43:31;;;;;;;7.40;1.52;;;;;;;;;;5034534;28;20018;-65
2021/10/06 08:45:59;;;;;;;7.38;2.03;;;;;;;;;;5034457;28;20076;-65
2021/10/06 08:48:28;;;;;;;8.65;2.53;;;;;;;;;;5043745;28;20029;-65
2021/10/06 08:50:55;;;;;;;6.45;1.77;;;;;;;;;;5039791;28;20095;-65
2021/10/06 08:53:22;;;;;;;9.27;1.35;;;;;;;;;;5050520;28;20023;-65
2021/10/06 08:55:49;;;;;;;7.45;1.70;;;;;;;;;;5053984;28;20090;-65
2021/10/06 08:58:16;;;;;;;12.05;2.25;;;;;;;;;;5051077;28;20056;-66
2021/10/06 09:00:57;;;;;;;11.55;1.77;;;;;;;;;;5043558;28;20509;-65
2021/10/06 09:03:27;;;;;;;8.32;1.60;;;;;;;;;;5044870;28;20048;-65
2021/10/06 09:06:08;;;;;;;7.28;1.48;;;;;;;;;;5049498;28;20088;-65
2021/10/06 09:08:36;;;;;;;8.48;1.77;;;;;;;;;;5046124;28;20025;-65
2021/10/06 09:11:05;;;;;;;7.68;1.70;;;;;;;;;;5045665;28;20045;-65
2021/10/06 09:13:33;;;;;;;8.77;2.03;;;;;;;;;;5045733;28;20024;-65
2021/10/06 09:16:01;;;;;;;7.20;1.50;;;;;;;;;;5046102;28;20013;-65
2021/10/06 09:18:29;;;;;;;14.55;1.95;;;;;;;;;;5038602;28;20025;-65
2021/10/06 09:21:04;;;;;;;10.25;1.38;;;;;;;;;;5043041;28;20064;-65
2021/10/06 09:23:35;;;;;;;8.90;1.80;;;;;;;;;;5044241;28;20036;-65
2021/10/06 09:26:05;;;;;;;9.40;1.98;;;;;;;;;;5047896;28;20090;-65
2021/10/06 09:28:33;;;;;;;9.30;2.45;;;;;;;;;;5052190;28;20025;-65
2021/10/06 09:31:18;;;;;;;8.80;1.92;;;;;;;;;;5041369;28;20036;-65
2021/10/06 09:33:47;;;;;;;8.93;1.40;;;;;;;;;;5050446;28;20115;-65
2021/10/06 09:36:19;;;;;;;8.65;1.45;;;;;;;;;;5040680;28;20028;-65
2021/10/06 09:38:47;;;;;;;8.55;1.60;;;;;;;;;;5033218;28;20049;-65
2021/10/06 09:41:32;;;;;;;6.70;1.35;;;;;;;;;;5037254;28;20032;-64
2021/10/06 09:44:10;;;;;;;10.77;1.70;;;;;;;;;;5050030;28;20036;-65
2021/10/06 09:46:56;;;;;;;7.60;1.13;;;;;;;;;;5039763;28;20049;-65
2021/10/06 09:49:24;;;;;;;6.35;1.60;;;;;;;;;;5033936;28;20022;-65
2021/10/06 09:52:26;;;;;;;7.93;1.38;;;;;;;;;;5044568;28;20040;-65
2021/10/06 09:54:53;;;;;;;8.07;1.60;;;;;;;;;;5010037;28;20029;-65
2021/10/06 09:57:24;;;;;;;8.48;1.15;;;;;;;;;;5043649;28;20072;-65
2021/10/06 09:59:52;;;;;;;5.95;1.55;;;;;;;;;;5041467;28;20099;-65
2021/10/06 10:02:20;;;;;;;9.45;1.35;;;;;;;;;;5055914;28;20029;-65
2021/10/06 10:04:50;;;;;;;6.60;1.17;;;;;;;;;;5050990;28;20040;-65
2021/10/06 10:07:17;;;;;;;6.63;1.75;;;;;;;;;;5043985;28;20075;-65
2021/10/06 10:09:44;;;;;;;10.30;2.25;;;;;;;;;;5043168;28;20100;-65
2021/10/06 10:12:12;;;;;;;10.80;1.35;;;;;;;;;;5034243;28;20029;-65
2021/10/06 10:14:40;;;;;;;11.75;2.15;;;;;;;;;;5032919;28;20079;-64
2021/10/06 10:17:07;;;;;;;9.48;1.92;;;;;;;;;;5051595;28;20033;-64
2021/10/06 10:19:34;;;;;;;13.00;2.00;;;;;;;;;;5051468;28;20022;-64
2021/10/06 10:22:03;;;;;;;6.13;1.27;;;;;;;;;;5043129;28;20025;-65
2021/10/06 10:24:31;;;;;;;7.07;1.13;;;;;;;;;;5055396;28;20354;-64
2021/10/06 10:27:06;;;;;;;18.67;1.80;;;;;;;;;;5052258;28;20031;-66
2021/10/06 10:29:33;;;;;;;8.48;1.63;;;;;;;;;;5040570;28;20096;-66
2021/10/06 10:32:08;;;;;;;6.05;1.40;;;;;;;;;;5043390;28;20561;-65
2021/10/06 10:34:53;;;;;;;7.55;1.30;;;;;;;;;;5038774;28;20033;-65
2021/10/06 10:37:21;;;;;;;11.77;1.80;;;;;;;;;;5046210;28;20082;-65
2021/10/06 10:39:50;;;;;;;13.05;2.13;;;;;;;;;;5040390;28;20494;-65
2021/10/06 10:42:17;;;;;;;12.82;1.60;;;;;;;;;;5046433;28;20025;-65
2021/10/06 10:44:46;;;;;;;7.85;1.80;;;;;;;;;;5039003;28;20665;-64
2021/10/06 10:47:14;;;;;;;12.88;1.90;;;;;;;;;;5035231;28;20017;-64
2021/10/06 10:49:48;;;;;;;14.27;1.98;;;;;;;;;;5041887;28;20495;-64
2021/10/06 10:52:16;;;;;;;14.73;1.95;;;;;;;;;;5048452;28;20021;-64
2021/10/06 10:54:44;;;;;;;11.30;1.95;;;;;;;;;;5050884;28;20053;-64
2021/10/06 10:57:20;;;;;;;11.27;1.63;;;;;;;;;;5035270;28;20040;-64
2021/10/06 10:59:49;;;;;;;9.38;1.20;;;;;;;;;;5031704;28;20485;-64
2021/10/06 11:02:17;;;;;;;9.63;2.20;;;;;;;;;;5042149;28;20476;-64
2021/10/06 11:04:46;;;;;;;10.18;1.65;;;;;;;;;;5051174;28;20135;-64
2021/10/06 11:07:21;;;;;;;7.60;1.73;;;;;;;;;;5040241;28;20017;-64
2021/10/06 11:09:50;;;;;;;12.80;1.70;;;;;;;;;;5037105;28;20581;-63
2021/10/06 11:12:20;;;;;;;11.82;2.13;;;;;;;;;;5048353;28;20378;-63
2021/10/06 11:14:49;;;;;;;13.80;2.03;;;;;;;;;;5038381;28;20033;-65
2021/10/06 11:17:17;;;;;;;19.05;2.95;;;;;;;;;;5037669;28;20026;-64
2021/10/06 11:19:45;;;;;;;12.48;2.25;;;;;;;;;;5049018;28;20018;-64
2021/10/06 11:22:25;;;;;;;8.60;2.03;;;;;;;;;;5046870;28;20021;-65
2021/10/06 11:24:59;;;;;;;14.25;1.38;;;;;;;;;;5044566;28;20025;-65
2021/10/06 11:27:26;;;;;;;9.38;1.50;;;;;;;;;;5039937;28;20027;-64
2021/10/06 11:29:56;;;;;;;10.35;1.42;;;;;;;;;;5043960;28;20475;-64
2021/10/06 11:32:23;;;;;;;10.55;2.53;;;;;;;;;;5041281;28;20017;-64
2021/10/06 11:34:50;;;;;;;12.25;1.65;;;;;;;;;;5044698;28;20025;-65
2021/10/06 11:37:26;;;;;;;9.57;1.38;;;;;;;;;;5044829;28;20025;-65
2021/10/06 11:39:54;;;;;;;11.35;1.77;;;;;;;;;;5041790;28;20092;-65
2021/10/06 11:42:30;;;;;;;10.48;1.98;;;;;;;;;;5042962;28;20026;-65
2021/10/06 11:44:57;;;;;;;12.13;1.50;;;;;;;;;;5040403;28;20056;-64
2021/10/06 11:47:24;;;;;;;9.68;1.60;;;;;;;;;;5040053;28;20076;-64
2021/10/06 11:49:52;;;;;;;13.10;2.45;;;;;;;;;;5045209;28;20028;-64
2021/10/06 11:52:20;;;;;;;9.32;1.42;;;;;;;;;;5036668;28;20497;-64
2021/10/06 11:54:48;;;;;;;12.18;2.17;;;;;;;;;;5038432;28;20115;-64
2021/10/06 11:57:18;;;;;;;18.92;1.80;;;;;;;;;;5041032;28;20034;-64
2021/10/06 11:59:46;;;;;;;10.57;1.58;;;;;;;;;;5039303;28;20112;-65
2021/10/06 12:02:14;;;;;;;7.68;1.98;;;;;;;;;;5063027;28;20535;-65
2021/10/06 12:04:42;;;;;;;12.20;1.77;;;;;;;;;;5044136;28;20025;-65
2021/10/06 12:07:16;;;;;;;20.70;2.10;;;;;;;;;;5049003;28;20048;-65
2021/10/06 12:09:47;;;;;;;14.80;1.75;;;;;;;;;;5050942;28;20017;-66
2021/10/06 12:12:21;;;;;;;14.57;2.33;;;;;;;;;;5051087;28;20559;-65
2021/10/06 12:14:50;;;;;;;13.00;2.03;;;;;;;;;;5045905;28;20020;-63
2021/10/06 12:17:24;;;;;;;17.38;2.13;;;;;;;;;;5046370;28;20021;-64
2021/10/06 12:19:55;;;;;;;15.18;1.90;;;;;;;;;;5054133;28;20037;-64
2021/10/06 12:22:23;;;;;;;16.05;2.17;;;;;;;;;;5053495;28;20024;-66
2021/10/06 12:24:50;;;;;;;13.90;1.77;;;;;;;;;;5049535;28;20040;-64
2021/10/06 12:27:31;;;;;;;16.30;2.15;;;;;;;;;;5051653;28;20024;-64
2021/10/06 12:30:24;;;;;;;12.27;3.17;;;;;;;;;;5046187;28;20162;-64
2021/10/06 12:32:59;;;;;;;25.13;3.97;;;;;;;;;;5051578;28;20033;-64
2021/10/06 12:35:26;;;;;;;16.13;2.33;;;;;;;;;;5054013;28;20029;-64
2021/10/06 12:37:57;;;;;;;14.07;2.13;;;;;;;;;;5046573;28;20021;-64
2021/10/06 12:40:50;;;;;;;17.02;2.35;;;;;;;;;;5052864;28;20078;-64
2021/10/06 12:43:28;;;;;;;16.15;2.70;;;;;;;;;;5052153;28;20088;-64
2021/10/06 12:46:17;;;;;;;16.73;1.95;;;;;;;;;;5047637;28;20033;-64
2021/10/06 12:48:52;;;;;;;13.07;2.05;;;;;;;;;;5039342;28;20482;-64
2021/10/06 12:51:20;;;;;;;8.27;1.50;;;;;;;;;;5053802;28;20036;-64
2021/10/06 12:53:54;;;;;;;8.35;1.13;;;;;;;;;;5053979;28;20162;-65
2021/10/06 12:56:21;;;;;;;;;;;;;;;;;;5052281;28;20036;-64
2021/10/06 12:58:58;;;;;;;11.70;1.98;;;;;;;;;;5053171;28;19916;-64
2021/10/06 13:01:25;;;;;;;9.25;1.67;;;;;;;;;;5053774;28;20442;-64
2021/10/06 13:03:52;;;;;;;13.38;1.88;;;;;;;;;;5053522;28;20021;-64
2021/10/06 13:06:20;;;;;;;14.95;1.80;;;;;;;;;;5052462;28;20096;-64
2021/10/06 13:08:51;;;;;;;9.25;1.73;;;;;;;;;;5053849;28;20144;-64
2021/10/06 13:11:18;;;;;;;16.80;2.25;;;;;;;;;;5052967;28;20040;-64
2021/10/06 13:13:46;;;;;;;11.90;1.83;;;;;;;;;;5034565;28;20024;-64
2021/10/06 13:16:14;;;;;;;16.50;2.08;;;;;;;;;;5042803;28;20114;-64
2021/10/06 13:18:41;;;;;;;10.38;1.85;;;;;;;;;;5036274;28;20647;-64
2021/10/06 13:21:08;;;;;;;9.85;1.80;;;;;;;;;;5050807;28;20027;-64
2021/10/06 13:23:36;;;;;;;10.80;1.75;;;;;;;;;;5049243;28;20472;-64
2021/10/06 13:26:05;;;;;;;13.65;1.98;;;;;;;;;;5052543;28;20079;-64
2021/10/06 13:28:32;;;;;;;12.65;1.65;;;;;;;;;;5053581;28;20021;-64
2021/10/06 13:30:59;;;;;;;10.00;2.03;;;;;;;;;;5052636;28;20390;-64
2021/10/06 13:33:27;;;;;;;15.55;1.85;;;;;;;;;;5047811;28;20025;-64
2021/10/06 13:35:54;;;;;;;8.77;1.52;;;;;;;;;;5052842;28;20100;-64
2021/10/06 13:38:21;;;;;;;10.68;2.03;;;;;;;;;;5053259;28;20063;-64
2021/10/06 13:40:48;;;;;;;9.68;1.60;;;;;;;;;;5053045;28;20477;-64
2021/10/06 13:43:16;;;;;;;9.63;1.77;;;;;;;;;;5045361;28;20479;-64
2021/10/06 13:45:43;;;;;;;10.45;1.98;;;;;;;;;;5041980;28;20079;-64
2021/10/06 13:48:10;;;;;;;11.20;1.67;;;;;;;;;;5039847;28;20057;-64
2021/10/06 13:50:38;;;;;;;15.82;2.55;;;;;;;;;;5032883;28;20091;-64
2021/10/06 13:53:05;;;;;;;11.68;1.42;;;;;;;;;;5038943;28;20547;-64
2021/10/06 13:55:32;;;;;;;12.20;1.80;;;;;;;;;;5036423;28;20432;-63
2021/10/06 13:58:00;;;;;;;12.52;2.05;;;;;;;;;;5037125;28;20029;-63
2021/10/06 14:00:29;;;;;;;12.48;2.40;;;;;;;;;;5045653;28;20040;-64
2021/10/06 14:02:58;;;;;;;8.18;2.30;;;;;;;;;;5036759;28;20044;-63
2021/10/06 14:05:26;;;;;;;9.98;2.22;;;;;;;;;;5052330;28;20029;-63
2021/10/06 14:07:56;;;;;;;10.70;2.10;;;;;;;;;;5052613;28;20035;-63
2021/10/06 14:10:24;;;;;;;10.57;2.78;;;;;;;;;;5033010;28;20044;-64
2021/10/06 14:12:52;;;;;;;12.02;2.70;;;;;;;;;;5033697;28;20108;-63
2021/10/06 14:15:19;;;;;;;9.88;1.88;;;;;;;;;;5043819;28;20025;-64
2021/10/06 14:17:47;;;;;;;10.50;2.17;;;;;;;;;;5043899;28;20028;-64
2021/10/06 14:20:14;;;;;;;7.32;1.70;;;;;;;;;;5045190;28;20029;-64
2021/10/06 14:22:46;;;;;;;20.10;2.95;;;;;;;;;;5041631;28;20494;-66
2021/10/06 14:25:14;;;;;;;12.18;2.65;;;;;;;;;;5050650;28;20052;-64
2021/10/06 14:27:41;;;;;;;15.27;2.90;;;;;;;;;;5045693;28;20096;-63
2021/10/06 14:30:12;;;;;;;11.68;2.40;;;;;;;;;;5057053;28;20037;-63
2021/10/06 14:32:40;;;;;;;13.27;2.38;;;;;;;;;;5043227;28;20034;-64
2021/10/06 14:35:07;;;;;;;7.45;2.88;;;;;;;;;;5033083;28;20029;-63
2021/10/06 14:37:35;;;;;;;13.52;2.38;;;;;;;;;;5050778;28;20025;-63
2021/10/06 14:40:03;;;;;;;10.93;2.78;;;;;;;;;;5037968;28;20076;-64
2021/10/06 14:42:30;;;;;;;13.27;2.47;;;;;;;;;;5037076;28;20021;-64
2021/10/06 14:44:58;;;;;;;11.93;2.92;;;;;;;;;;5036978;28;20030;-63